createdAt,value
2018-05-10T00:02:21.812Z,100336.85
2018-05-10T00:04:51.350Z,100339.52
2018-05-10T00:07:20.535Z,100340.77
2018-05-10T00:16:36.718Z,100337.22
2018-05-10T00:19:05.903Z,100328.97
2018-05-10T00:21:34.367Z,100323.50
2018-05-10T00:24:02.862Z,100328.42
2018-05-10T00:26:31.382Z,100325.21
2018-05-10T00:28:59.798Z,100323.82
2018-05-10T00:31:28.327Z,100318.27
2018-05-10T00:33:56.896Z,100319.59
2018-05-10T00:36:25.683Z,100319.77
2018-05-10T00:38:54.374Z,100315.05
2018-05-10T00:41:22.819Z,100313.45
2018-05-10T00:43:51.224Z,100313.39
2018-05-10T00:46:20.161Z,100315.09
2018-05-10T00:48:48.708Z,100308.18
2018-05-10T00:51:17.514Z,100313.33
2018-05-10T00:53:46.079Z,100312.66
2018-05-10T00:56:14.524Z,100314.92
2018-05-10T00:58:43.083Z,100313.38
2018-05-10T01:01:11.566Z,100310.86
2018-05-10T01:03:40.245Z,100313.49
2018-05-10T01:06:09.136Z,100314.78
2018-05-10T01:08:38.099Z,100316.16
2018-05-10T01:11:06.796Z,100317.23
2018-05-10T01:13:35.377Z,100305.27
2018-05-10T01:16:03.883Z,100309.97
2018-05-10T01:18:32.319Z,100308.59
2018-05-10T01:21:01.063Z,100303.88
2018-05-10T01:23:29.506Z,100303.48
2018-05-10T01:25:58.428Z,100298.39
2018-05-10T01:28:27.093Z,100300.13
2018-05-10T01:30:55.778Z,100295.47
2018-05-10T01:33:24.215Z,100298.63
2018-05-10T01:36:14.753Z,100299.30
2018-05-10T01:38:43.469Z,100294.70
2018-05-10T01:41:12.023Z,100298.88
2018-05-10T01:43:40.487Z,100290.55
2018-05-10T01:46:09.108Z,100289.47
2018-05-10T01:48:37.527Z,100292.86
2018-05-10T01:51:06.398Z,100288.78
2018-05-10T01:53:35.031Z,100287.34
2018-05-10T01:56:03.628Z,100289.24
2018-05-10T01:58:32.415Z,100291.82
2018-05-10T02:01:00.907Z,100286.09
2018-05-10T02:03:29.472Z,100286.48
2018-05-10T02:05:58.069Z,100286.48
2018-05-10T02:11:04.179Z,100287.66
2018-05-10T02:13:32.679Z,100293.06
2018-05-10T02:16:01.214Z,100295.28
2018-05-10T02:18:29.867Z,100299.86
2018-05-10T02:20:59.046Z,100311.02
2018-05-10T02:23:27.648Z,100314.69
2018-05-10T02:26:59.533Z,100323.02
2018-05-10T02:29:27.937Z,100296.18
2018-05-10T02:31:56.373Z,100302.88
2018-05-10T02:34:25.087Z,100301.83
2018-05-10T02:36:53.640Z,100315.27
2018-05-10T02:39:22.344Z,100325.31
2018-05-10T02:41:50.999Z,100305.31
2018-05-10T02:44:19.922Z,100299.02
2018-05-10T02:46:48.521Z,100304.50
2018-05-10T02:49:17.380Z,100318.48
2018-05-10T02:51:45.859Z,100313.57
2018-05-10T02:54:14.248Z,100309.11
2018-05-10T02:56:42.899Z,100315.44
2018-05-10T02:59:11.531Z,100315.80
2018-05-10T03:01:40.263Z,100304.38
2018-05-10T03:04:08.844Z,100304.06
2018-05-10T03:06:37.281Z,100308.69
2018-05-10T03:09:05.875Z,100308.52
2018-05-10T03:11:34.348Z,100310.27
2018-05-10T03:14:02.828Z,100310.11
2018-05-10T03:16:31.270Z,100314.98
2018-05-10T03:18:59.779Z,100317.22
2018-05-10T03:21:28.278Z,100307.40
2018-05-10T03:23:56.685Z,100306.83
2018-05-10T03:26:25.283Z,100311.16
2018-05-10T03:28:53.775Z,100303.91
2018-05-10T03:31:22.215Z,100303.19
2018-05-10T03:33:57.095Z,100306.49
2018-05-10T03:36:25.680Z,100304.14
2018-05-10T03:38:54.463Z,100309.30
2018-05-10T03:41:23.021Z,100305.84
2018-05-10T03:43:51.751Z,100300.78
2018-05-10T03:46:20.390Z,100305.42
2018-05-10T03:48:49.030Z,100306.41
2018-05-10T03:51:17.495Z,100304.75
2018-05-10T03:53:45.932Z,100300.45
2018-05-10T03:56:14.657Z,100297.59
2018-05-10T03:58:43.478Z,100301.64
2018-05-10T04:04:16.503Z,100299.09
2018-05-10T04:09:02.957Z,100297.53
2018-05-10T04:11:31.383Z,100295.59
2018-05-10T04:13:59.680Z,100301.94
2018-05-10T04:16:27.994Z,100300.09
2018-05-10T04:18:56.679Z,100300.27
2018-05-10T04:21:25.147Z,100304.75
2018-05-10T04:23:53.427Z,100299.59
2018-05-10T04:26:21.747Z,100301.30
2018-05-10T04:28:50.158Z,100297.59
2018-05-10T04:31:18.490Z,100299.80
2018-05-10T04:33:46.897Z,100298.87
2018-05-10T04:36:15.211Z,100301.13
2018-05-10T04:38:43.648Z,100307.42
2018-05-10T04:41:11.963Z,100306.64
2018-05-10T04:43:40.215Z,100306.70
2018-05-10T04:46:08.511Z,100307.31
2018-05-10T04:48:37.242Z,100315.19
2018-05-10T04:51:05.550Z,100318.03
2018-05-10T04:53:33.846Z,100320.81
2018-05-10T04:56:02.144Z,100316.52
2018-05-10T04:58:30.556Z,100315.67
2018-05-10T05:00:58.999Z,100322.70
2018-05-10T05:03:27.338Z,100317.56
2018-05-10T05:05:55.697Z,100316.85
2018-05-10T05:08:23.982Z,100317.63
2018-05-10T05:10:52.306Z,100315.70
2018-05-10T05:13:20.544Z,100316.98
2018-05-10T05:15:48.846Z,100313.33
2018-05-10T05:18:17.591Z,100311.67
2018-05-10T05:20:46.029Z,100319.11
2018-05-10T05:23:14.370Z,100322.19
2018-05-10T05:25:42.647Z,100321.52
2018-05-10T05:28:10.922Z,100320.19
2018-05-10T05:30:39.334Z,100323.22
2018-05-10T05:33:07.686Z,100317.67
2018-05-10T05:35:36.036Z,100324.47
2018-05-10T05:38:04.276Z,100323.30
2018-05-10T05:40:32.648Z,100329.98
2018-05-10T05:43:00.916Z,100332.88
2018-05-10T05:45:29.203Z,100336.36
2018-05-10T05:47:57.471Z,100334.58
2018-05-10T05:50:26.086Z,100334.87
2018-05-10T05:52:54.555Z,100346.13
2018-05-10T05:55:22.919Z,100333.70
2018-05-10T05:57:51.340Z,100339.38
2018-05-10T06:00:19.692Z,100345.48
2018-05-10T06:02:47.971Z,100349.30
2018-05-10T06:05:16.257Z,100348.76
2018-05-10T06:07:44.536Z,100359.60
2018-05-10T06:10:12.835Z,100358.31
2018-05-10T06:12:41.144Z,100351.52
2018-05-10T06:15:09.543Z,100357.72
2018-05-10T06:17:37.987Z,100365.81
2018-05-10T06:20:06.492Z,100360.02
2018-05-10T06:22:34.801Z,100363.88
2018-05-10T06:25:03.072Z,100360.42
2018-05-10T06:27:31.374Z,100359.58
2018-05-10T06:29:59.630Z,100354.98
2018-05-10T06:32:27.948Z,100352.07
2018-05-10T06:34:56.331Z,100361.27
2018-05-10T06:37:24.937Z,100360.23
2018-05-10T06:39:53.242Z,100360.11
2018-05-10T06:42:21.641Z,100363.50
2018-05-10T06:44:50.057Z,100367.86
2018-05-10T06:47:18.381Z,100374.91
2018-05-10T06:49:46.821Z,100382.35
2018-05-10T06:52:15.356Z,100378.65
2018-05-10T06:54:43.873Z,100387.05
2018-05-10T06:57:12.130Z,100384.10
2018-05-10T06:59:40.451Z,100384.67
2018-05-10T07:02:08.864Z,100388.55
2018-05-10T07:04:37.098Z,100384.91
2018-05-10T07:07:05.609Z,100395.70
2018-05-10T07:09:34.397Z,100386.94
2018-05-10T07:12:02.693Z,100383.10
2018-05-10T07:14:32.990Z,100391.73
2018-05-10T07:17:03.720Z,100389.72
2018-05-10T07:19:34.083Z,100381.75
2018-05-10T07:22:03.112Z,100391.55
2018-05-10T07:24:32.536Z,100393.88
2018-05-10T07:27:01.219Z,100398.44
2018-05-10T07:29:29.661Z,100392.56
2018-05-10T07:31:58.946Z,100380.20
2018-05-10T07:34:27.242Z,100381.48
2018-05-10T07:36:56.466Z,100383.41
2018-05-10T07:39:26.057Z,100375.81
2018-05-10T07:41:56.785Z,100382.19
2018-05-10T07:44:25.502Z,100390.87
2018-05-10T07:46:55.406Z,100386.20
2018-05-10T07:49:24.102Z,100384.06
2018-05-10T07:51:52.406Z,100388.84
2018-05-10T07:54:20.680Z,100389.98
2018-05-10T07:56:48.958Z,100389.53
2018-05-10T07:59:17.398Z,100380.22
2018-05-10T08:01:45.811Z,100382.63
2018-05-10T08:04:14.172Z,100385.30
2018-05-10T08:06:43.004Z,100382.83
2018-05-10T08:09:11.752Z,100384.89
2018-05-10T08:11:40.095Z,100383.92
2018-05-10T08:14:08.381Z,100379.87
2018-05-10T08:16:42.301Z,100380.63
2018-05-10T08:19:18.578Z,100368.31
2018-05-10T08:21:47.014Z,100376.09
2018-05-10T08:24:16.096Z,100375.73
2018-05-10T08:26:44.851Z,100368.59
2018-05-10T08:29:13.158Z,100371.61
2018-05-10T08:31:42.867Z,100378.41
2018-05-10T08:34:12.862Z,100378.97
2018-05-10T08:36:41.647Z,100369.72
2018-05-10T08:39:09.908Z,100368.82
2018-05-10T08:41:38.378Z,100372.84
2018-05-10T08:44:06.934Z,100367.33
2018-05-10T08:46:35.288Z,100369.13
2018-05-10T08:49:03.551Z,100372.41
2018-05-10T08:51:34.194Z,100371.30
2018-05-10T08:54:04.565Z,100366.75
2018-05-10T08:56:33.289Z,100366.45
2018-05-10T08:59:01.777Z,100371.60
2018-05-10T09:01:30.077Z,100369.69
2018-05-10T09:03:58.340Z,100370.44
2018-05-10T09:06:26.731Z,100368.09
2018-05-10T09:08:55.305Z,100367.55
2018-05-10T09:11:23.625Z,100365.98
2018-05-10T09:13:51.940Z,100363.93
2018-05-10T09:16:20.260Z,100371.62
2018-05-10T09:18:48.534Z,100363.39
2018-05-10T09:21:16.813Z,100367.94
2018-05-10T09:23:45.068Z,100367.00
2018-05-10T09:26:13.369Z,100364.39
2018-05-10T09:28:41.648Z,100375.83
2018-05-10T09:31:09.942Z,100363.95
2018-05-10T09:33:38.194Z,100365.22
2018-05-10T09:36:06.518Z,100370.75
2018-05-10T09:38:34.972Z,100371.44
2018-05-10T09:41:03.258Z,100371.02
2018-05-10T09:43:31.731Z,100367.22
2018-05-10T09:46:00.047Z,100368.84
2018-05-10T09:48:28.382Z,100372.02
2018-05-10T09:50:56.663Z,100370.44
2018-05-10T09:53:24.957Z,100375.26
2018-05-10T09:55:53.336Z,100378.05
2018-05-10T09:58:21.658Z,100377.26
2018-05-10T10:00:50.075Z,100381.67
2018-05-10T10:03:18.456Z,100376.25
2018-05-10T10:05:46.770Z,100378.05
2018-05-10T10:08:15.306Z,100376.22
2018-05-10T10:10:43.776Z,100370.37
2018-05-10T10:13:12.430Z,100370.91
2018-05-10T10:15:40.773Z,100370.37
2018-05-10T10:18:09.056Z,100377.95
2018-05-10T10:20:37.348Z,100376.14
2018-05-10T10:23:05.617Z,100374.31
2018-05-10T10:25:33.893Z,100371.67
2018-05-10T10:28:03.000Z,100372.91
2018-05-10T10:30:31.429Z,100368.92
2018-05-10T10:32:59.928Z,100373.75
2018-05-10T10:35:28.556Z,100368.52
2018-05-10T10:37:56.844Z,100372.84
2018-05-10T10:40:25.166Z,100363.64
2018-05-10T10:42:53.422Z,100376.45
2018-05-10T10:45:21.775Z,100369.93
2018-05-10T10:47:50.094Z,100374.34
2018-05-10T10:50:18.444Z,100368.09
2018-05-10T10:52:46.719Z,100370.98
2018-05-10T10:55:16.939Z,100375.43
2018-05-10T10:57:46.138Z,100370.94
2018-05-10T11:00:14.495Z,100371.10
2018-05-10T11:02:42.928Z,100374.88
2018-05-10T11:05:11.430Z,100373.86
2018-05-10T11:07:39.699Z,100379.73
2018-05-10T11:10:07.997Z,100382.33
2018-05-10T11:12:36.286Z,100375.66
2018-05-10T11:15:04.775Z,100371.94
2018-05-10T11:17:33.053Z,100378.32
2018-05-10T11:20:01.294Z,100380.28
2018-05-10T11:22:29.668Z,100378.73
2018-05-10T11:24:57.864Z,100377.46
2018-05-10T11:27:26.199Z,100370.81
2018-05-10T11:29:54.443Z,100374.23
2018-05-10T11:32:22.761Z,100370.91
2018-05-10T11:34:51.043Z,100370.34
2018-05-10T11:37:19.367Z,100375.39
2018-05-10T11:39:47.867Z,100374.84
2018-05-10T11:42:16.303Z,100379.02
2018-05-10T11:44:44.557Z,100375.61
2018-05-10T11:47:12.871Z,100370.48
2018-05-10T11:49:41.123Z,100372.59
2018-05-10T11:52:09.446Z,100375.23
2018-05-10T11:54:37.715Z,100376.31
2018-05-10T11:57:06.150Z,100379.27
2018-05-10T11:59:34.482Z,100374.86
2018-05-10T12:02:03.039Z,100364.73
2018-05-10T12:04:34.829Z,100366.58
2018-05-10T12:07:03.607Z,100368.29
2018-05-10T12:09:31.958Z,100373.86
2018-05-10T12:12:01.135Z,100373.81
2018-05-10T12:14:29.423Z,100363.52
2018-05-10T12:16:59.230Z,100369.08
2018-05-10T12:19:27.684Z,100372.52
2018-05-10T12:21:56.002Z,100380.45
2018-05-10T12:24:24.368Z,100372.92
2018-05-10T12:26:52.673Z,100359.59
2018-05-10T12:29:21.281Z,100362.20
2018-05-10T12:31:49.558Z,100373.28
2018-05-10T12:34:17.922Z,100361.27
2018-05-10T12:36:46.222Z,100359.02
2018-05-10T12:39:14.590Z,100357.78
2018-05-10T12:41:43.092Z,100349.40
2018-05-10T12:44:11.429Z,100366.56
2018-05-10T12:46:39.710Z,100374.21
2018-05-10T12:49:07.983Z,100362.17
2018-05-10T12:51:36.263Z,100374.29
2018-05-10T12:54:04.548Z,100361.14
2018-05-10T12:56:32.906Z,100365.01
2018-05-10T12:59:01.334Z,100366.23
2018-05-10T13:01:29.639Z,100364.64
2018-05-10T13:03:57.927Z,100356.84
2018-05-10T13:06:26.223Z,100363.72
2018-05-10T13:08:54.514Z,100355.67
2018-05-10T13:11:22.796Z,100342.99
2018-05-10T13:13:51.097Z,100355.20
2018-05-10T13:16:19.389Z,100354.08
2018-05-10T13:18:47.686Z,100347.78
2018-05-10T13:21:15.999Z,100344.81
2018-05-10T13:23:44.285Z,100350.68
2018-05-10T13:26:12.559Z,100360.16
2018-05-10T13:28:40.841Z,100348.76
2018-05-10T13:31:09.171Z,100356.88
2018-05-10T13:33:38.012Z,100355.47
2018-05-10T13:36:06.311Z,100354.64
2018-05-10T13:38:35.158Z,100358.25
2018-05-10T13:41:03.476Z,100355.65
2018-05-10T13:43:32.077Z,100350.09
2018-05-10T13:46:00.550Z,100343.48
2018-05-10T13:48:28.806Z,100348.14
2018-05-10T13:50:57.102Z,100347.27
2018-05-10T13:53:25.363Z,100349.16
2018-05-10T13:55:53.652Z,100349.37
2018-05-10T13:58:21.933Z,100355.98
2018-05-10T14:00:50.343Z,100349.51
2018-05-10T14:03:18.593Z,100352.40
2018-05-10T14:05:46.873Z,100352.67
2018-05-10T14:08:15.246Z,100361.84
2018-05-10T14:10:43.524Z,100360.32
2018-05-10T14:13:12.179Z,100362.07
2018-05-10T14:15:40.501Z,100359.09
2018-05-10T14:18:08.775Z,100363.80
2018-05-10T14:20:37.126Z,100361.97
2018-05-10T14:23:05.405Z,100360.35
2018-05-10T14:25:33.691Z,100357.47
2018-05-10T14:28:02.331Z,100345.89
2018-05-10T14:30:30.632Z,100355.64
2018-05-10T14:32:59.071Z,100350.27
2018-05-10T14:35:34.131Z,100352.60
2018-05-10T14:38:02.599Z,100358.23
2018-05-10T14:40:30.928Z,100367.08
2018-05-10T14:42:59.207Z,100369.77
2018-05-10T14:45:27.488Z,100371.70
2018-05-10T14:47:55.797Z,100378.57
2018-05-10T14:50:24.085Z,100368.66
2018-05-10T14:52:52.402Z,100371.86
2018-05-10T14:55:20.713Z,100373.22
2018-05-10T14:57:49.104Z,100379.74
2018-05-10T15:00:17.420Z,100379.05
2018-05-10T15:02:45.675Z,100376.22
2018-05-10T15:05:14.186Z,100378.84
2018-05-10T15:07:42.487Z,100379.47
2018-05-10T15:10:10.819Z,100382.47
2018-05-10T15:12:39.110Z,100379.30
2018-05-10T15:15:07.686Z,100380.03
2018-05-10T15:17:35.988Z,100379.03
2018-05-10T15:20:04.556Z,100378.05
2018-05-10T15:22:32.824Z,100369.17
2018-05-10T15:25:01.484Z,100374.50
2018-05-10T15:27:29.796Z,100371.38
2018-05-10T15:29:58.093Z,100367.41
2018-05-10T15:32:26.391Z,100377.05
2018-05-10T15:34:54.686Z,100375.44
2018-05-10T15:37:23.266Z,100383.67
2018-05-10T15:39:51.769Z,100385.47
2018-05-10T15:42:20.066Z,100383.06
2018-05-10T15:44:48.330Z,100383.08
2018-05-10T15:47:16.618Z,100390.86
2018-05-10T15:49:44.927Z,100412.11
2018-05-10T15:52:13.199Z,100423.85
2018-05-10T15:54:42.867Z,100423.55
2018-05-10T15:57:11.364Z,100429.54
2018-05-10T15:59:39.639Z,100431.65
2018-05-10T16:02:08.277Z,100441.16
2018-05-10T16:04:36.757Z,100440.39
2018-05-10T16:07:05.079Z,100441.87
2018-05-10T16:09:36.334Z,100452.62
2018-05-10T16:12:05.894Z,100456.48
2018-05-10T16:14:35.014Z,100461.00
2018-05-10T16:17:04.348Z,100483.45
2018-05-10T16:19:35.834Z,100489.16
2018-05-10T16:22:08.282Z,100488.51
2018-05-10T16:24:38.052Z,100476.84
2018-05-10T16:27:07.820Z,100483.35
2018-05-10T16:29:38.446Z,100491.61
2018-05-10T16:32:06.946Z,100497.38
2018-05-10T16:34:35.374Z,100494.27
2018-05-10T16:37:03.887Z,100495.29
2018-05-10T16:39:32.339Z,100500.23
2018-05-10T16:42:00.604Z,100511.05
2018-05-10T16:44:28.917Z,100502.18
2018-05-10T16:46:57.247Z,100486.98
2018-05-10T16:49:25.614Z,100488.09
2018-05-10T16:51:54.119Z,100499.10
2018-05-10T16:54:22.496Z,100496.70
2018-05-10T16:56:51.818Z,100498.23
2018-05-10T16:59:20.994Z,100496.45
2018-05-10T17:01:49.571Z,100501.95
2018-05-10T17:04:17.867Z,100517.05
2018-05-10T17:06:46.213Z,100507.83
2018-05-10T17:09:14.514Z,100509.10
2018-05-10T17:11:42.816Z,100513.91
2018-05-10T17:14:11.135Z,100524.80
2018-05-10T17:16:39.545Z,100514.14
2018-05-10T17:19:07.825Z,100503.00
2018-05-10T17:21:36.150Z,100502.41
2018-05-10T17:24:04.469Z,100495.02
2018-05-10T17:26:32.855Z,100497.87
2018-05-10T17:29:01.196Z,100508.63
2018-05-10T17:31:29.537Z,100528.53
2018-05-10T17:33:59.230Z,100529.35
2018-05-10T17:36:28.731Z,100527.26
2018-05-10T17:38:57.770Z,100520.20
2018-05-10T17:41:27.158Z,100513.31
2018-05-10T17:43:56.807Z,100511.83
2018-05-10T17:46:25.101Z,100521.74
2018-05-10T17:48:53.353Z,100548.17
2018-05-10T17:51:21.639Z,100552.46
2018-05-10T17:53:49.886Z,100574.52
2018-05-10T17:56:18.400Z,100595.98
2018-05-10T17:58:46.696Z,100636.63
2018-05-10T18:01:15.183Z,100665.28
2018-05-10T18:03:43.517Z,100691.77
2018-05-10T18:06:11.874Z,100708.03
2018-05-10T18:08:40.354Z,100729.08
2018-05-10T18:11:08.655Z,100738.73
2018-05-10T18:13:37.005Z,100749.51
2018-05-10T18:16:05.323Z,100765.47
2018-05-10T18:18:33.583Z,100777.02
2018-05-10T18:21:02.883Z,100785.54
2018-05-10T18:23:31.567Z,100785.43
2018-05-10T18:25:59.783Z,100794.16
2018-05-10T18:28:28.243Z,100792.34
2018-05-10T18:30:56.726Z,100796.45
2018-05-10T18:33:25.491Z,100795.52
2018-05-10T18:35:53.788Z,100811.59
2018-05-10T18:38:22.066Z,100815.70
2018-05-10T18:40:50.435Z,100821.02
2018-05-10T18:43:18.875Z,100820.12
2018-05-10T18:45:47.314Z,100828.56
2018-05-10T18:48:15.714Z,100819.34
2018-05-10T18:50:44.306Z,100827.75
2018-05-10T18:53:12.664Z,100840.97
2018-05-10T18:55:40.963Z,100846.44
2018-05-10T18:58:09.381Z,100857.25
2018-05-10T19:00:37.691Z,100860.23
2018-05-10T19:03:05.947Z,100856.02
2018-05-10T19:05:34.495Z,100861.25
2018-05-10T19:08:02.878Z,100842.97
2018-05-10T19:10:31.351Z,100830.84
2018-05-10T19:12:59.655Z,100821.30
2018-05-10T19:15:27.971Z,100831.84
2018-05-10T19:17:56.263Z,100838.32
2018-05-10T19:20:24.568Z,100838.30
2018-05-10T19:22:52.959Z,100828.09
2018-05-10T19:25:21.285Z,100815.34
2018-05-10T19:27:50.314Z,100818.92
2018-05-10T19:30:18.734Z,100821.21
2018-05-10T19:32:47.086Z,100826.79
2018-05-10T19:35:15.502Z,100832.84
2018-05-10T19:37:43.802Z,100849.02
2018-05-10T19:40:12.214Z,100845.05
2018-05-10T19:42:40.550Z,100850.30
2018-05-10T19:45:09.194Z,100846.14
2018-05-10T19:47:37.886Z,100852.77
2018-05-10T19:50:06.278Z,100858.53
2018-05-10T19:52:34.746Z,100860.25
2018-05-10T19:55:03.021Z,100863.18
2018-05-10T19:57:31.518Z,100867.09
2018-05-10T19:59:59.958Z,100875.58
2018-05-10T20:02:28.270Z,100888.56
2018-05-10T20:04:56.700Z,100899.79
2018-05-10T20:07:25.030Z,100905.59
2018-05-10T20:09:53.598Z,100902.84
2018-05-10T20:12:22.007Z,100913.06
2018-05-10T20:14:50.376Z,100913.25
2018-05-10T20:17:18.796Z,100919.50
2018-05-10T20:19:47.130Z,100919.39
2018-05-10T20:22:15.426Z,100926.70
2018-05-10T20:24:43.713Z,100932.52
2018-05-10T20:27:12.186Z,100941.45
2018-05-10T20:29:40.545Z,100955.03
2018-05-10T20:32:09.106Z,100964.75
2018-05-10T20:34:37.482Z,100963.27
2018-05-10T20:37:05.782Z,100972.05
2018-05-10T20:39:34.234Z,100967.20
2018-05-10T20:42:02.558Z,100957.39
2018-05-10T20:44:30.848Z,100961.98
2018-05-10T20:46:59.301Z,100958.17
2018-05-10T20:49:27.761Z,100954.12
2018-05-10T20:51:56.256Z,100963.63
2018-05-10T20:54:24.515Z,100974.16
2018-05-10T20:56:52.888Z,100983.45
2018-05-10T20:59:21.175Z,100987.53
2018-05-10T21:01:49.501Z,100992.24
2018-05-10T21:04:17.871Z,100984.09
2018-05-10T21:06:46.203Z,100986.63
2018-05-10T21:09:14.586Z,101002.32
2018-05-10T21:11:43.082Z,101005.84
2018-05-10T21:14:11.371Z,101012.34
2018-05-10T21:16:39.832Z,101013.98
2018-05-10T21:19:08.117Z,101007.63
2018-05-10T21:21:36.410Z,101005.60
2018-05-10T21:24:04.666Z,101004.31
2018-05-10T21:26:33.152Z,101011.33
2018-05-10T21:29:01.618Z,101009.64
2018-05-10T21:31:29.901Z,101015.09
2018-05-10T21:33:58.452Z,101014.76
2018-05-10T21:36:26.674Z,101022.90
2018-05-10T21:38:54.925Z,101023.31
2018-05-10T21:41:23.219Z,101033.89
2018-05-10T21:43:51.653Z,101032.09
2018-05-10T21:46:20.110Z,101034.53
2018-05-10T21:48:48.362Z,101033.14
2018-05-10T21:51:16.654Z,101036.87
2018-05-10T21:53:44.961Z,101037.59
2018-05-10T21:56:13.263Z,101035.89
2018-05-10T21:58:41.730Z,101042.91
2018-05-10T22:01:12.269Z,101046.81
2018-05-10T22:03:40.739Z,101052.50
2018-05-10T22:06:09.079Z,101049.73
2018-05-10T22:08:37.462Z,101060.34
2018-05-10T22:11:05.942Z,101056.03
2018-05-10T22:13:34.238Z,101051.63
2018-05-10T22:16:02.710Z,101056.56
2018-05-10T22:18:31.020Z,101052.00
2018-05-10T22:20:59.313Z,101055.11
2018-05-10T22:23:27.579Z,101055.37
2018-05-10T22:25:55.854Z,101050.05
2018-05-10T22:28:24.135Z,101052.16
2018-05-10T22:30:52.455Z,101056.71
2018-05-10T22:33:20.882Z,101047.34
2018-05-10T22:35:49.189Z,101047.18
2018-05-10T22:38:17.634Z,101040.66
2018-05-10T22:40:45.939Z,101046.92
2018-05-10T22:43:14.399Z,101038.27
2018-05-10T22:45:42.699Z,101031.95
2018-05-10T22:48:10.977Z,101027.45
2018-05-10T22:50:39.575Z,101025.30
2018-05-10T22:53:07.890Z,101019.61
2018-05-10T22:55:36.206Z,101032.59
2018-05-10T22:58:05.318Z,101034.44
2018-05-10T23:00:33.790Z,101042.79
2018-05-10T23:03:02.039Z,101041.45
2018-05-10T23:05:32.427Z,101051.02
2018-05-10T23:08:00.838Z,101048.58
2018-05-10T23:10:29.939Z,101058.62
2018-05-10T23:12:58.616Z,101067.90
2018-05-10T23:15:26.886Z,101071.87
2018-05-10T23:17:55.162Z,101076.34
2018-05-10T23:20:23.442Z,101068.70
2018-05-10T23:22:51.714Z,101064.13
2018-05-10T23:25:20.042Z,101073.27
2018-05-10T23:27:48.353Z,101074.11
2018-05-10T23:30:16.650Z,101072.46
2018-05-10T23:32:45.022Z,101078.10
2018-05-10T23:35:13.343Z,101082.45
2018-05-10T23:37:41.785Z,101092.43
2018-05-10T23:40:10.103Z,101094.37
2018-05-10T23:42:38.372Z,101101.25
2018-05-10T23:45:06.821Z,101101.37
2018-05-10T23:47:35.102Z,101096.66
2018-05-10T23:50:03.375Z,101098.19
2018-05-10T23:52:31.670Z,101102.72
2018-05-10T23:54:59.991Z,101107.81
2018-05-10T23:57:28.395Z,101113.28
2018-05-10T23:59:56.756Z,101119.61
